createdAt,value
2022-09-15T00:09:43.536Z,18.70
2022-09-15T00:14:35.234Z,18.70
2022-09-15T00:19:26.973Z,18.70
2022-09-15T00:24:21.187Z,18.80
2022-09-15T00:29:13.284Z,18.90
2022-09-15T00:34:05.131Z,18.80
2022-09-15T00:38:58.279Z,18.80
2022-09-15T00:44:04.896Z,18.80
2022-09-15T00:49:08.595Z,18.70
2022-09-15T00:54:06.393Z,18.60
2022-09-15T01:04:23.868Z,18.60
2022-09-15T01:09:24.556Z,18.70
2022-09-15T01:14:16.882Z,18.70
2022-09-15T01:19:59.657Z,18.60
2022-09-15T01:25:06.684Z,18.60
2022-09-15T01:30:26.980Z,18.50
2022-09-15T01:36:00.643Z,18.50
2022-09-15T01:41:17.335Z,18.40
2022-09-15T01:46:18.969Z,18.30
2022-09-15T02:01:52.001Z,18.00
2022-09-15T02:07:39.693Z,17.90
2022-09-15T02:12:45.540Z,18.00
2022-09-15T02:22:57.855Z,17.80
2022-09-15T02:27:58.418Z,17.80
2022-09-15T02:33:11.889Z,17.80
2022-09-15T02:38:13.263Z,17.80
2022-09-15T02:48:18.309Z,17.70
2022-09-15T02:53:10.827Z,17.70
2022-09-15T02:58:02.796Z,17.60
2022-09-15T03:02:55.985Z,17.70
2022-09-15T03:07:48.257Z,17.70
2022-09-15T03:12:46.545Z,17.70
2022-09-15T03:17:43.885Z,17.70
2022-09-15T03:22:36.065Z,17.80
2022-09-15T03:27:27.989Z,17.80
2022-09-15T03:32:19.689Z,17.70
2022-09-15T03:37:11.669Z,17.70
2022-09-15T03:42:05.284Z,17.70
2022-09-15T03:46:58.755Z,17.70
2022-09-15T03:51:51.523Z,17.70
2022-09-15T03:56:43.556Z,17.70
2022-09-15T04:01:36.009Z,17.70
2022-09-15T04:06:35.823Z,17.60
2022-09-15T04:11:28.741Z,17.70
2022-09-15T04:26:42.185Z,17.60
2022-09-15T04:31:35.604Z,17.60
2022-09-15T04:36:36.510Z,17.60
2022-09-15T04:56:47.861Z,17.40
2022-09-15T05:01:40.809Z,17.30
2022-09-15T05:16:48.186Z,17.20
2022-09-15T05:21:41.663Z,17.20
2022-09-15T05:31:40.467Z,17.30
2022-09-15T05:41:40.563Z,17.50
2022-09-15T05:46:32.690Z,18.10
2022-09-15T05:51:33.502Z,18.80
2022-09-15T06:11:43.949Z,19.50
2022-09-15T06:26:50.050Z,19.10
2022-09-15T06:31:49.709Z,19.10
2022-09-15T06:42:02.719Z,18.80
2022-09-15T06:47:03.708Z,18.90
2022-09-15T07:43:02.620Z,20.40
2022-09-15T08:18:55.823Z,20.30
2022-09-15T08:45:09.849Z,20.10
2022-09-15T09:17:51.975Z,19.80
2022-09-15T09:54:38.669Z,19.00
2022-09-15T15:47:17.948Z,19.20
2022-09-15T18:49:07.057Z,17.40
2022-09-15T19:29:46.304Z,17.40
2022-09-15T20:31:50.038Z,17.00
2022-09-15T20:57:13.083Z,17.00
2022-09-15T21:17:24.078Z,16.70
2022-09-15T21:22:19.543Z,16.70
2022-09-15T21:32:39.599Z,16.50
2022-09-15T21:37:40.028Z,16.40
2022-09-15T21:42:35.382Z,16.40
2022-09-15T21:47:30.556Z,16.20
2022-09-15T21:52:23.070Z,16.10
2022-09-15T21:57:15.383Z,16.10
2022-09-15T22:02:11.508Z,16.20
2022-09-15T22:07:07.851Z,16.00
2022-09-15T22:17:05.953Z,15.80
2022-09-15T22:21:58.469Z,15.80
2022-09-15T22:26:50.867Z,15.70
2022-09-15T22:31:42.869Z,15.60
2022-09-15T22:36:36.256Z,15.60
2022-09-15T22:41:30.541Z,15.70
2022-09-15T22:56:35.252Z,15.60
2022-09-15T23:01:30.699Z,15.70
2022-09-15T23:06:24.563Z,15.70
2022-09-15T23:11:17.005Z,15.70
2022-09-15T23:16:09.355Z,15.70
2022-09-15T23:26:21.565Z,15.60
2022-09-15T23:31:14.523Z,15.50
2022-09-15T23:36:10.526Z,15.60
2022-09-15T23:41:02.517Z,15.60
2022-09-15T23:51:00.561Z,15.70
2022-09-15T23:55:52.666Z,15.70
